Barstow, Texas
Current Conditions -  °F | °C
As of 10:35 PM on Wednesday 22 Oct 2014 (Local Time) from KPEQ Reporting Station
Clear Clear  
Wind Chill: 64°   Ceiling: Unl
Heat Index: 64°   Visibility: 10mi
Dew Point: 60°   Wind: 7mph
Humidity: 87%   Direction: 70°ENE
Pressure: 30.09"   Gusts: NA
Location:  31.46°N, 103.39°W
Report Text: KPEQ 230335Z AUTO 07006KT 10SM CLR 18/15 A3009 RMK AO2 T01750153
Loading
Personal Weather Stations






























Interactive Weather Map
Tropical Storm Tracking
New forecast layout! Learn more

10-Day Weather Forecast

Advertisements
Track Severe Weather on mobile